Port Hardy Airport
CYZT : now visible

Airfield :











YOU CAN JOIN US ON...

 
LOGIN :

Register | Disclaimer

   EN    FR    IT 

 









Legend :    VFR   Marginal VFR   IFR   Intensive IFR   Very Intensive IFR
Visi :
Ceiling :
>= 8 km
>= 3000ft
5 to 8 km
1000 to 3000 ft
1500m to 5 km
500 to 1000 ft
800 to 1500m
200 to 500 ft
< 800m
< 200 ft
Symbols :   Thunderstorms  Fog  Heavy snow  Heavy precipitations  Wind > 20 kt






- Airport Elevation : 71 ft
- IATA code : YZT


CYZT - Port Hardy

CURRENT METAR :
  • 230100Z 11006KT 5SM -RA BR BKN007 OVC018 07/06 A3020 RMK SF5SC3 SLP227

EXPIRED METARs :
  • 230032Z 12007KT 5SM -RA BR BKN008 OVC020 07/06 A3020 RMK SF5SC3 SLP229
  • 230000Z 14003KT 100V180 8SM -RA SCT008 BKN018 OVC028 07/06 A3019 RMK SF3SC2SC3 SLP227
  • 222300Z 11005KT 090V170 10SM -RA FEW012 SCT012 OVC028 07/06 A3018 RMK SF1SC2SC5 SLP222

TAF TAF CYZT
Valid from the 23 at 01:00 until the 23 at 13:00 UTC


230038Z 2301/2313 VRB03KT 6SM -RA BR SCT008 OVC025
TEMPO 2301/2305 2SM SHRA BR BKN008 OVC015
BECMG 2301/2303 11012KT
FM230500 12012KT P6SM SCT020 BKN040
TEMPO 2305/2313 5SM -RA BR BKN020 OVC040 RMK NXT FCST BY 230700Z



MET'MAP, your aeronautical weather chart ! - Copyright ORBIFLY December 2007 - Disclaimer

ORBIFLY MET'MAP TEAM :

Programming & Development : Alexandra Zaïnal
Concept & Development : Baudouin d'Aumeries
Co-Development & Prog : Marc-Olivier Méhu
Technical & hardware support : Manuel Goepfert

Contact : metmap@orbifly.com




SOURCES & CREDITS :

   NOAA       Earth
Advisory